Time;durP1;ratioP1;P1;durP2;ratioP2;P2;SDS_P1;SDS_P2;PMS_P1;PMS_P2;Temp;Humidity;BMP_temperature;BMP_pressure;BME280_temperature;BME280_humidity;BME280_pressure;Samples;Min_cycle;Max_cycle;Signal;HPM_P1;HPM_P2
2021/10/16 07:52:32;;;;;;;8.23;1.45;;;18.00;71.10;;;;;;4800872;24;20058;-69
2021/10/16 07:54:58;;;;;;;6.07;1.08;;;18.20;70.60;;;;;;4807718;29;20172;-72
2021/10/16 07:57:24;;;;;;;8.57;1.75;;;18.30;70.50;;;;;;4807783;29;20055;-70
2021/10/16 07:59:49;;;;;;;6.18;1.40;;;18.30;70.50;;;;;;4807660;29;20058;-71
2021/10/16 08:02:15;;;;;;;4.90;1.67;;;18.30;70.50;;;;;;4807712;29;20443;-72
2021/10/16 08:04:41;;;;;;;7.22;1.38;;;18.40;70.50;;;;;;4807601;29;20050;-71
2021/10/16 08:07:06;;;;;;;7.03;2.13;;;18.40;70.40;;;;;;4807144;29;20042;-71
2021/10/16 08:09:32;;;;;;;8.77;1.60;;;18.40;70.50;;;;;;4807117;29;20097;-71
2021/10/16 08:11:58;;;;;;;5.72;1.35;;;18.40;66.90;;;;;;4807477;29;20050;-71
2021/10/16 08:14:24;;;;;;;5.43;1.48;;;18.30;70.10;;;;;;4807277;29;20051;-72
2021/10/16 08:16:49;;;;;;;7.85;1.20;;;18.30;70.40;;;;;;4807231;29;20129;-71
2021/10/16 08:19:15;;;;;;;4.43;1.25;;;18.30;70.50;;;;;;4791984;29;20138;-72
2021/10/16 08:21:41;;;;;;;6.07;1.13;;;18.30;70.10;;;;;;4807734;29;20058;-71
2021/10/16 08:24:07;;;;;;;7.38;1.38;;;18.30;70.00;;;;;;4808128;29;20104;-71
2021/10/16 08:26:32;;;;;;;7.40;1.33;;;18.30;70.00;;;;;;4807684;29;20058;-72
2021/10/16 08:28:58;;;;;;;7.15;1.30;;;18.30;69.80;;;;;;4812954;29;20074;-72
2021/10/16 08:31:24;;;;;;;8.50;1.20;;;18.20;69.90;;;;;;4825549;29;20051;-73
2021/10/16 08:33:50;;;;;;;4.25;0.98;;;18.20;70.10;;;;;;4812102;29;20168;-72
2021/10/16 08:36:16;;;;;;;7.28;0.93;;;18.20;69.90;;;;;;4821419;29;20336;-70
2021/10/16 08:38:42;;;;;;;7.80;1.58;;;18.10;68.70;;;;;;4826172;29;20075;-72
2021/10/16 08:41:12;;;;;;;9.15;1.42;;;18.10;70.00;;;;;;4813184;29;20051;-74
2021/10/16 08:43:39;;;;;;;10.05;1.88;;;18.20;70.00;;;;;;4819379;29;20065;-73
2021/10/16 08:46:05;;;;;;;5.32;0.98;;;18.20;70.10;;;;;;4804447;29;20051;-70
2021/10/16 08:48:31;;;;;;;9.32;1.65;;;18.20;70.20;;;;;;4810644;29;20058;-72
2021/10/16 08:50:58;;;;;;;6.00;1.35;;;18.20;70.20;;;;;;4779976;29;20059;-70
2021/10/16 08:53:24;;;;;;;5.88;1.20;;;18.20;69.90;;;;;;4791586;30;20059;-70
2021/10/16 08:55:51;;;;;;;4.82;1.10;;;18.30;69.80;;;;;;4806796;29;20050;-69
2021/10/16 08:58:18;;;;;;;4.63;1.48;;;18.30;69.80;;;;;;4809600;29;20105;-71
2021/10/16 09:00:51;;;;;;;8.35;1.33;;;18.30;69.80;;;;;;4809316;29;20051;-71
2021/10/16 09:03:31;;;;;;;2.63;0.77;;;18.30;69.80;;;;;;4810060;29;20050;-71
2021/10/16 09:06:06;;;;;;;10.85;1.80;;;18.30;69.40;;;;;;4809244;29;20127;-71
2021/10/16 09:08:45;;;;;;;4.53;1.42;;;18.30;69.70;;;;;;4809810;29;20061;-71
2021/10/16 09:11:19;;;;;;;6.53;1.20;;;18.40;69.70;;;;;;4819140;29;20108;-70
2021/10/16 09:13:48;;;;;;;5.78;1.77;;;18.50;69.10;;;;;;4827615;29;20431;-71
2021/10/16 09:16:22;;;;;;;11.85;1.50;;;18.40;69.30;;;;;;4826459;29;20062;-71
2021/10/16 09:18:51;;;;;;;5.32;1.30;;;18.40;69.00;;;;;;4826909;29;20050;-72
2021/10/16 09:21:17;;;;;;;7.47;1.30;;;18.40;70.00;;;;;;4826605;29;20050;-80
2021/10/16 09:23:42;;;;;;;12.48;1.27;;;18.40;69.60;;;;;;4825525;29;20057;-70
2021/10/16 09:26:08;;;;;;;5.85;1.13;;;18.40;69.60;;;;;;4827208;29;20196;-71
2021/10/16 09:28:36;;;;;;;6.15;1.60;;;18.50;69.70;;;;;;4827166;29;20050;-70
2021/10/16 09:31:10;;;;;;;6.25;1.48;;;18.40;69.70;;;;;;4826558;29;20050;-70
2021/10/16 09:33:46;;;;;;;9.85;1.30;;;18.40;69.30;;;;;;4826953;29;20050;-71
2021/10/16 09:36:23;;;;;;;7.47;1.45;;;18.30;69.60;;;;;;4825255;29;20129;-73
2021/10/16 09:38:49;;;;;;;5.18;1.13;;;18.30;69.80;;;;;;4819057;29;20050;-71
2021/10/16 09:41:26;;;;;;;9.13;1.60;;;18.30;69.90;;;;;;4805500;29;20058;-70
2021/10/16 10:50:49;;;;;;;9.93;1.20;;;18.80;66.60;;;;;;4696574;30;1130865;-73
2021/10/16 10:53:23;;;;;;;16.42;1.65;;;18.80;66.80;;;;;;4736307;30;20057;-73
2021/10/16 10:56:01;;;;;;;8.32;1.80;;;18.80;67.10;;;;;;4736967;30;20063;-73
2021/10/16 10:58:57;;;;;;;13.20;1.98;;;18.70;67.20;;;;;;4737238;30;20067;-73
2021/10/16 11:01:44;;;;;;;9.45;1.23;;;18.70;67.10;;;;;;4736792;30;20061;-74
2021/10/16 11:04:30;;;;;;;11.20;1.50;;;18.60;67.40;;;;;;4737118;30;20130;-73
2021/10/16 11:06:59;;;;;;;8.25;1.42;;;18.60;67.70;;;;;;4737280;30;20067;-72
2021/10/16 11:09:25;;;;;;;8.57;1.95;;;18.60;67.70;;;;;;4736757;30;20052;-72
2021/10/16 11:11:51;;;;;;;10.73;1.35;;;18.60;67.80;;;;;;4737146;30;20067;-73
2021/10/16 11:14:17;;;;;;;12.77;2.10;;;18.50;67.20;;;;;;4735644;30;20153;-75
2021/10/16 11:16:59;;;;;;;12.63;2.08;;;18.50;67.40;;;;;;4730095;30;20128;-73
2021/10/16 11:19:26;;;;;;;11.32;1.70;;;18.40;66.40;;;;;;4736744;30;20358;-73
2021/10/16 11:21:53;;;;;;;12.77;1.67;;;18.40;67.40;;;;;;4737061;30;20384;-72
2021/10/16 11:24:20;;;;;;;7.13;1.40;;;18.30;67.70;;;;;;4737222;30;20064;-72
2021/10/16 11:26:56;;;;;;;8.80;1.23;;;18.40;67.40;;;;;;4737116;30;20045;-73
2021/10/16 11:29:40;;;;;;;6.88;1.40;;;18.40;67.90;;;;;;4749276;30;20456;-72
2021/10/16 11:32:19;;;;;;;8.70;1.63;;;18.40;67.80;;;;;;4754190;30;20063;-71
2021/10/16 11:35:05;;;;;;;6.53;1.35;;;18.30;59.90;;;;;;4743600;30;20060;-71
2021/10/16 11:37:40;;;;;;;5.32;1.38;;;17.60;60.90;;;;;;4735963;30;20095;-71
2021/10/16 11:40:09;;;;;;;5.97;1.40;;;17.20;62.20;;;;;;4753410;30;20059;-73
2021/10/16 11:42:36;;;;;;;3.78;1.27;;;17.10;63.60;;;;;;4754364;30;20133;-72
2021/10/16 11:45:10;;;;;;;10.25;1.65;;;16.80;63.10;;;;;;4754539;30;20048;-72
2021/10/16 11:47:36;;;;;;;6.20;1.52;;;16.70;64.80;;;;;;4754575;30;20052;-73
2021/10/16 11:50:14;;;;;;;10.63;1.50;;;17.00;67.90;;;;;;4754088;30;20445;-73
2021/10/16 11:52:41;;;;;;;4.50;1.13;;;17.20;68.50;;;;;;4753909;30;20460;-76
2021/10/16 11:55:21;;;;;;;6.10;1.30;;;17.40;68.20;;;;;;4753865;30;20052;-72
2021/10/16 11:57:46;;;;;;;5.97;1.38;;;17.60;68.30;;;;;;4745768;30;20504;-73
2021/10/16 12:00:22;;;;;;;4.15;1.05;;;17.70;67.80;;;;;;4732486;30;20052;-73
2021/10/16 12:02:48;;;;;;;8.32;1.77;;;17.80;67.70;;;;;;4736214;30;20048;-73
2021/10/16 12:05:16;;;;;;;5.32;0.98;;;17.80;67.50;;;;;;4736350;30;20476;-73
2021/10/16 12:07:43;;;;;;;6.43;0.85;;;17.80;66.70;;;;;;4735855;30;20381;-74
2021/10/16 12:10:34;;;;;;;8.43;1.58;;;17.90;67.20;;;;;;4735987;30;20482;-72
2021/10/16 12:13:05;;;;;;;5.55;1.05;;;18.00;64.60;;;;;;4747017;30;20471;-70
2021/10/16 12:15:40;;;;;;;9.02;1.58;;;17.50;66.20;;;;;;4751299;30;20560;-71
2021/10/16 12:18:16;;;;;;;7.55;1.52;;;17.70;68.40;;;;;;4752286;30;20091;-72
2021/10/16 12:20:47;;;;;;;7.55;1.58;;;17.80;67.80;;;;;;4747667;30;20392;-71
2021/10/16 12:23:13;;;;;;;8.65;1.40;;;17.90;67.10;;;;;;4734142;30;20373;-75
2021/10/16 12:25:51;;;;;;;9.00;1.63;;;17.90;67.60;;;;;;4741930;30;20058;-71
2021/10/16 12:28:17;;;;;;;7.60;1.38;;;18.00;67.80;;;;;;4751667;30;20083;-70
2021/10/16 12:30:58;;;;;;;7.47;1.20;;;18.10;67.70;;;;;;4743483;30;20057;-73
2021/10/16 12:33:24;;;;;;;6.85;1.30;;;18.10;67.60;;;;;;4739325;30;20057;-71
2021/10/16 12:36:03;;;;;;;7.30;2.80;;;18.10;67.80;;;;;;4739079;30;20555;-71
2021/10/16 12:38:48;;;;;;;10.85;2.45;;;18.10;70.50;;;;;;4739405;30;20053;-72
2021/10/16 12:41:25;;;;;;;9.88;3.33;;;18.10;69.90;;;;;;4739461;30;20052;-75
2021/10/16 12:43:52;;;;;;;10.50;3.35;;;18.20;71.30;;;;;;4729579;30;20053;-71
2021/10/16 12:46:28;;;;;;;9.60;2.45;;;18.20;71.40;;;;;;4739546;30;20427;-72
2021/10/16 12:48:56;;;;;;;6.72;2.38;;;18.20;70.70;;;;;;4738092;30;20053;-71
2021/10/16 12:51:44;;;;;;;9.40;2.17;;;18.10;70.70;;;;;;4739328;30;20213;-73
2021/10/16 12:54:10;;;;;;;9.98;2.33;;;18.10;69.30;;;;;;4739218;30;20053;-73
2021/10/16 12:56:36;;;;;;;6.45;1.85;;;18.10;70.10;;;;;;4738878;30;20048;-73
2021/10/16 12:59:03;;;;;;;10.07;1.85;;;18.10;70.20;;;;;;4739573;30;20059;-74
2021/10/16 13:01:30;;;;;;;7.13;2.00;;;18.10;70.60;;;;;;4739048;30;20097;-73
2021/10/16 13:03:56;;;;;;;6.72;1.83;;;18.10;70.60;;;;;;4739204;30;20053;-72
2021/10/16 13:06:23;;;;;;;10.15;2.55;;;18.10;70.00;;;;;;4739269;30;20463;-71
2021/10/16 13:08:49;;;;;;;14.02;2.53;;;17.90;68.80;;;;;;4738622;30;20525;-74
2021/10/16 13:11:16;;;;;;;8.23;2.25;;;18.00;70.20;;;;;;4738843;30;20065;-71
2021/10/16 13:13:42;;;;;;;12.05;1.92;;;18.00;69.90;;;;;;4738975;30;20497;-71
2021/10/16 13:16:08;;;;;;;10.90;1.73;;;18.00;70.00;;;;;;4738801;30;20065;-72
2021/10/16 13:18:35;;;;;;;11.90;2.20;;;18.00;69.80;;;;;;4738460;30;20053;-71
2021/10/16 13:21:00;;;;;;;9.30;2.05;;;18.00;69.50;;;;;;4738633;30;20052;-72
2021/10/16 13:23:26;;;;;;;12.82;1.50;;;18.00;69.40;;;;;;4738637;30;20135;-73
2021/10/16 13:25:52;;;;;;;7.90;2.17;;;18.00;69.40;;;;;;4738463;30;20465;-72
2021/10/16 13:28:17;;;;;;;6.40;1.48;;;18.00;69.40;;;;;;4738821;30;20073;-72
2021/10/16 13:30:43;;;;;;;8.40;1.77;;;18.00;69.50;;;;;;4737242;30;20098;-72
2021/10/16 13:33:09;;;;;;;7.13;1.65;;;18.00;69.50;;;;;;4723659;30;20057;-72
2021/10/16 13:35:34;;;;;;;5.88;1.67;;;18.00;69.50;;;;;;4752450;30;20067;-71
2021/10/16 13:38:00;;;;;;;6.97;1.88;;;18.00;69.50;;;;;;4737542;30;20498;-72
2021/10/16 13:40:26;;;;;;;5.80;1.38;;;18.00;69.60;;;;;;4738521;30;20421;-72
2021/10/16 13:42:52;;;;;;;5.45;1.70;;;18.00;69.60;;;;;;4738316;30;20381;-71
2021/10/16 13:45:19;;;;;;;5.82;1.42;;;17.90;69.60;;;;;;4738100;30;20063;-71
2021/10/16 13:47:45;;;;;;;9.43;1.85;;;17.90;69.60;;;;;;4737959;30;20131;-71
2021/10/16 13:50:12;;;;;;;5.00;1.27;;;17.90;69.60;;;;;;4738551;30;20056;-71
2021/10/16 13:52:38;;;;;;;6.28;1.75;;;17.80;69.60;;;;;;4738137;30;20065;-71
2021/10/16 13:55:06;;;;;;;8.15;1.40;;;17.80;69.70;;;;;;4738342;30;20049;-71
2021/10/16 13:57:32;;;;;;;5.50;1.60;;;17.80;69.70;;;;;;4738653;30;20147;-71
2021/10/16 13:59:58;;;;;;;4.68;1.58;;;17.70;69.70;;;;;;4721831;30;20060;-72
2021/10/16 14:02:23;;;;;;;5.85;1.15;;;17.80;69.70;;;;;;4737464;30;20064;-72
2021/10/16 14:04:49;;;;;;;4.75;1.40;;;17.70;69.70;;;;;;4737955;30;20053;-71
2021/10/16 14:07:15;;;;;;;4.68;1.20;;;17.80;69.70;;;;;;4737946;30;20053;-71
2021/10/16 14:09:41;;;;;;;6.18;1.75;;;17.70;69.70;;;;;;4737783;30;20056;-72
2021/10/16 14:12:07;;;;;;;5.80;1.30;;;17.70;69.70;;;;;;4737822;30;20147;-71
2021/10/16 14:14:32;;;;;;;6.28;1.52;;;17.70;69.70;;;;;;4737666;30;20053;-70
2021/10/16 14:16:58;;;;;;;4.82;1.27;;;17.70;69.60;;;;;;4738220;30;20060;-72
2021/10/16 14:19:24;;;;;;;4.07;1.10;;;17.70;69.60;;;;;;4736954;30;20060;-72
2021/10/16 14:21:49;;;;;;;4.07;1.40;;;17.60;70.10;;;;;;4737624;30;20149;-71
2021/10/16 14:24:15;;;;;;;5.78;1.27;;;17.60;69.50;;;;;;4738085;30;20088;-71
2021/10/16 14:26:41;;;;;;;4.65;1.33;;;17.70;69.50;;;;;;4737498;30;20056;-72
2021/10/16 14:29:07;;;;;;;4.35;1.17;;;17.70;69.50;;;;;;4736882;30;20060;-72
2021/10/16 14:31:33;;;;;;;4.45;1.20;;;17.70;69.50;;;;;;4738105;30;20061;-72
2021/10/16 14:33:59;;;;;;;5.72;1.10;;;17.60;69.40;;;;;;4737644;30;20060;-71
2021/10/16 14:36:25;;;;;;;5.28;1.60;;;17.60;69.40;;;;;;4722862;30;20053;-72
2021/10/16 14:38:51;;;;;;;4.32;1.23;;;17.60;69.40;;;;;;4737142;30;20142;-72
2021/10/16 14:41:16;;;;;;;4.43;1.17;;;17.60;69.40;;;;;;4722772;30;20092;-72
2021/10/16 14:43:42;;;;;;;4.55;1.15;;;17.60;69.40;;;;;;4736521;30;20063;-72
2021/10/16 14:46:09;;;;;;;3.38;1.60;;;17.60;69.50;;;;;;4737703;30;20059;-72
2021/10/16 14:48:35;;;;;;;3.65;1.02;;;17.60;69.40;;;;;;4737578;30;20056;-71
2021/10/16 14:51:01;;;;;;;3.92;1.17;;;17.60;69.40;;;;;;4737498;30;20548;-72
2021/10/16 14:53:27;;;;;;;4.00;1.10;;;17.50;69.40;;;;;;4737150;30;20152;-72
2021/10/16 14:55:52;;;;;;;4.97;1.10;;;17.50;69.40;;;;;;4737173;30;20131;-71
2021/10/16 14:58:18;;;;;;;2.65;0.90;;;17.50;69.30;;;;;;4736995;30;20354;-72
2021/10/16 15:00:44;;;;;;;3.95;1.00;;;17.50;69.40;;;;;;4737787;30;20457;-71
2021/10/16 15:03:10;;;;;;;3.22;0.80;;;17.50;69.60;;;;;;4736985;30;20136;-72
2021/10/16 15:05:35;;;;;;;2.65;0.98;;;17.50;69.50;;;;;;4737035;30;20057;-72
2021/10/16 15:08:01;;;;;;;3.47;0.85;;;17.50;69.50;;;;;;4737408;30;20349;-72
2021/10/16 15:10:27;;;;;;;2.40;1.02;;;17.50;69.50;;;;;;4736742;30;20451;-72
2021/10/16 15:12:53;;;;;;;2.83;0.77;;;17.50;69.40;;;;;;4736825;30;20052;-72
2021/10/16 15:15:19;;;;;;;3.88;0.90;;;17.50;69.50;;;;;;4736938;30;20064;-71
2021/10/16 15:17:45;;;;;;;3.22;0.80;;;17.50;69.50;;;;;;4737120;30;20431;-72
2021/10/16 15:20:11;;;;;;;5.78;1.30;;;17.40;69.40;;;;;;4736180;30;20083;-71
2021/10/16 15:22:37;;;;;;;3.67;0.85;;;17.40;69.40;;;;;;4736872;30;20401;-71
2021/10/16 15:25:04;;;;;;;3.90;0.80;;;17.40;69.40;;;;;;4736745;30;20056;-71
2021/10/16 15:27:30;;;;;;;3.47;1.00;;;17.40;69.40;;;;;;4736496;30;20488;-72
2021/10/16 15:29:57;;;;;;;2.15;0.85;;;17.40;69.40;;;;;;4736833;30;20049;-71
2021/10/16 15:32:22;;;;;;;3.05;0.95;;;17.40;69.50;;;;;;4721283;30;20056;-72
2021/10/16 15:34:48;;;;;;;2.88;0.88;;;17.40;69.40;;;;;;4736359;30;20053;-71
2021/10/16 15:37:14;;;;;;;2.70;0.70;;;17.40;69.40;;;;;;4737385;30;20370;-71
2021/10/16 15:39:48;;;;;;;2.03;0.63;;;17.40;69.40;;;;;;4736381;30;20124;-72
2021/10/16 15:42:18;;;;;;;3.78;0.90;;;17.40;69.40;;;;;;4736454;30;20102;-72
2021/10/16 15:44:44;;;;;;;2.42;0.88;;;17.40;69.40;;;;;;4737522;30;20060;-72
2021/10/16 15:47:11;;;;;;;3.85;0.93;;;17.40;69.40;;;;;;4737145;30;20381;-72
2021/10/16 15:49:38;;;;;;;3.47;1.10;;;17.30;69.40;;;;;;4721143;30;20076;-72
2021/10/16 15:52:05;;;;;;;4.43;1.10;;;17.30;69.40;;;;;;4736382;30;20067;-71
2021/10/16 15:54:31;;;;;;;2.25;0.63;;;17.30;69.40;;;;;;4722993;30;20057;-72
2021/10/16 15:56:57;;;;;;;3.55;1.15;;;17.30;69.40;;;;;;4740015;30;20067;-71
2021/10/16 15:59:23;;;;;;;3.17;1.13;;;17.30;69.40;;;;;;4740179;30;20066;-72
2021/10/16 16:01:49;;;;;;;4.60;1.08;;;17.30;69.50;;;;;;4740278;30;20516;-71
2021/10/16 16:04:15;;;;;;;2.25;0.95;;;17.30;69.50;;;;;;4739813;30;20082;-71
2021/10/16 16:06:41;;;;;;;3.38;1.10;;;17.30;69.50;;;;;;4740285;30;20057;-71
2021/10/16 16:09:06;;;;;;;2.58;0.77;;;17.30;69.50;;;;;;4740342;30;20438;-72
2021/10/16 16:11:32;;;;;;;2.20;0.88;;;17.30;69.60;;;;;;4724608;30;20114;-72
2021/10/16 16:13:58;;;;;;;2.63;0.85;;;17.30;69.60;;;;;;4739838;30;20056;-72
2021/10/16 16:16:24;;;;;;;2.22;1.00;;;17.30;69.60;;;;;;4739976;30;20056;-72
2021/10/16 16:18:49;;;;;;;3.83;1.17;;;17.30;69.60;;;;;;4739453;30;20052;-71
2021/10/16 16:21:15;;;;;;;5.53;1.30;;;17.30;69.60;;;;;;4739672;30;20052;-72
2021/10/16 16:23:41;;;;;;;4.25;0.90;;;17.30;69.70;;;;;;4724465;30;20061;-71
2021/10/16 16:26:07;;;;;;;2.45;0.85;;;17.30;69.70;;;;;;4724349;30;20170;-72
2021/10/16 16:28:33;;;;;;;4.55;1.30;;;17.30;69.70;;;;;;4739532;30;20048;-71
2021/10/16 16:30:59;;;;;;;3.00;0.90;;;17.30;69.80;;;;;;4739550;30;20067;-71
2021/10/16 16:33:24;;;;;;;4.18;1.27;;;17.30;69.80;;;;;;4739518;30;20048;-72
2021/10/16 16:35:50;;;;;;;2.50;0.80;;;17.30;69.70;;;;;;4739389;30;20082;-71
2021/10/16 16:38:16;;;;;;;3.13;1.08;;;17.30;70.40;;;;;;4739455;30;20059;-72
2021/10/16 16:40:41;;;;;;;2.42;0.65;;;17.20;69.80;;;;;;4739498;30;20447;-71
2021/10/16 16:43:08;;;;;;;4.32;1.10;;;17.20;69.80;;;;;;4739302;30;20067;-72
2021/10/16 16:45:34;;;;;;;3.47;0.95;;;17.20;69.90;;;;;;4739602;30;20060;-73
2021/10/16 16:48:00;;;;;;;2.65;0.85;;;17.20;69.80;;;;;;4724372;30;20052;-72
2021/10/16 16:50:25;;;;;;;2.92;0.85;;;17.20;69.80;;;;;;4738926;30;20152;-71
2021/10/16 16:52:51;;;;;;;2.92;0.98;;;17.30;69.90;;;;;;4739097;30;20060;-72
2021/10/16 16:55:17;;;;;;;3.88;1.05;;;17.30;69.90;;;;;;4724325;30;20072;-71
2021/10/16 16:57:43;;;;;;;3.60;1.10;;;17.20;69.90;;;;;;4739203;30;20048;-72
2021/10/16 17:00:12;;;;;;;2.92;1.23;;;17.20;69.90;;;;;;4739117;30;20377;-72
2021/10/16 17:02:38;;;;;;;2.20;0.85;;;17.20;69.90;;;;;;4723884;30;20057;-72
2021/10/16 17:05:08;;;;;;;2.67;1.10;;;17.20;69.90;;;;;;4738514;30;20063;-72
2021/10/16 17:07:35;;;;;;;3.60;1.00;;;17.20;69.90;;;;;;4738631;30;20068;-71
2021/10/16 17:10:01;;;;;;;3.78;1.08;;;17.20;70.60;;;;;;4723907;30;20061;-72
2021/10/16 17:12:26;;;;;;;4.20;1.30;;;17.20;70.00;;;;;;4738734;30;20433;-72
2021/10/16 17:14:52;;;;;;;2.35;1.02;;;17.20;70.00;;;;;;4738935;30;20465;-72
2021/10/16 17:17:18;;;;;;;3.47;1.30;;;17.20;70.00;;;;;;4738940;30;20467;-71
2021/10/16 17:19:45;;;;;;;3.00;0.80;;;17.20;70.00;;;;;;4738807;30;20092;-71
2021/10/16 17:22:10;;;;;;;3.15;1.17;;;17.10;70.00;;;;;;4738349;30;20099;-71
2021/10/16 17:24:36;;;;;;;3.97;0.98;;;17.20;70.00;;;;;;4739136;30;20088;-71
2021/10/16 17:27:02;;;;;;;3.75;1.10;;;17.10;70.00;;;;;;4723249;30;20122;-71
2021/10/16 17:29:28;;;;;;;4.25;1.25;;;17.10;70.00;;;;;;4737906;30;20060;-72
2021/10/16 17:31:55;;;;;;;2.70;1.33;;;17.20;70.00;;;;;;4738566;30;20361;-72
2021/10/16 17:34:26;;;;;;;5.32;1.10;;;17.10;70.00;;;;;;4723796;30;20056;-72
2021/10/16 17:36:53;;;;;;;4.65;1.27;;;17.10;70.10;;;;;;4738449;30;20108;-72
2021/10/16 17:39:19;;;;;;;2.78;0.80;;;17.10;70.10;;;;;;4738323;30;20060;-72
2021/10/16 17:41:45;;;;;;;2.75;1.00;;;17.10;70.10;;;;;;4738563;30;20057;-72
2021/10/16 17:44:13;;;;;;;3.55;1.20;;;17.10;70.10;;;;;;4722717;30;20110;-71
2021/10/16 17:46:39;;;;;;;4.28;1.25;;;17.10;70.10;;;;;;4741436;30;20349;-72
2021/10/16 17:49:05;;;;;;;7.18;1.75;;;17.10;70.30;;;;;;4755792;30;20056;-73
2021/10/16 17:51:32;;;;;;;9.43;1.88;;;17.00;69.90;;;;;;4756154;30;20067;-70
2021/10/16 17:53:58;;;;;;;6.75;1.67;;;17.00;69.00;;;;;;4755378;30;20129;-71
2021/10/16 17:56:24;;;;;;;9.55;2.20;;;17.00;69.30;;;;;;4737886;30;20436;-70
2021/10/16 17:58:49;;;;;;;12.30;1.80;;;16.90;69.10;;;;;;4737014;30;20154;-71
2021/10/16 18:01:15;;;;;;;49.45;5.30;;;16.90;68.90;;;;;;4738267;30;20080;-74
2021/10/16 18:03:42;;;;;;;21.70;2.95;;;16.90;69.00;;;;;;4738072;30;20357;-69
2021/10/16 18:06:08;;;;;;;20.25;3.03;;;16.80;68.00;;;;;;4738138;30;20446;-71
2021/10/16 18:08:38;;;;;;;15.80;2.95;;;16.70;68.00;;;;;;4737980;30;20143;-71
2021/10/16 18:11:05;;;;;;;18.65;2.72;;;16.70;69.00;;;;;;4737951;30;20354;-71
2021/10/16 18:13:31;;;;;;;11.52;2.28;;;16.60;69.00;;;;;;4738447;30;20056;-71
2021/10/16 18:15:57;;;;;;;9.90;2.03;;;16.60;69.00;;;;;;4737974;30;20053;-73
2021/10/16 18:18:23;;;;;;;14.60;2.30;;;16.60;69.40;;;;;;4737628;30;20139;-75
2021/10/16 18:20:48;;;;;;;21.10;3.25;;;16.60;69.50;;;;;;4737814;30;20053;-75
2021/10/16 18:23:14;;;;;;;16.48;2.70;;;16.60;69.90;;;;;;4738176;30;20056;-73
2021/10/16 18:25:40;;;;;;;16.50;2.45;;;16.70;70.30;;;;;;4738120;30;20400;-74
2021/10/16 18:28:07;;;;;;;15.15;2.15;;;16.70;70.10;;;;;;4737440;30;20071;-73
2021/10/16 18:30:34;;;;;;;12.05;2.47;;;16.70;70.20;;;;;;4736972;30;20105;-73
2021/10/16 18:33:00;;;;;;;10.30;1.77;;;16.70;70.10;;;;;;4738410;30;20056;-73
2021/10/16 18:35:27;;;;;;;15.77;2.67;;;16.60;70.20;;;;;;4747368;30;20067;-74
2021/10/16 18:37:52;;;;;;;21.17;2.60;;;16.60;70.40;;;;;;4755282;30;20126;-73
2021/10/16 18:40:18;;;;;;;22.90;3.15;;;16.70;70.70;;;;;;4755326;30;20193;-73
2021/10/16 18:42:45;;;;;;;16.40;2.53;;;16.70;70.60;;;;;;4754946;30;20422;-73
2021/10/16 18:45:11;;;;;;;12.02;2.40;;;16.70;70.60;;;;;;4755491;30;20067;-73
2021/10/16 18:47:37;;;;;;;14.45;1.92;;;16.80;70.60;;;;;;4755122;30;20060;-73
2021/10/16 18:50:05;;;;;;;15.88;2.65;;;16.80;70.70;;;;;;4754708;30;20547;-73
2021/10/16 18:52:32;;;;;;;11.32;2.05;;;16.80;70.70;;;;;;4740756;30;20065;-73
2021/10/16 18:54:59;;;;;;;14.00;2.38;;;16.80;70.80;;;;;;4736894;30;20188;-73
2021/10/16 18:57:25;;;;;;;10.80;1.90;;;16.80;70.80;;;;;;4737098;30;20473;-74
2021/10/16 18:59:51;;;;;;;14.57;2.20;;;16.70;70.80;;;;;;4736881;30;20059;-75
2021/10/16 19:02:16;;;;;;;6.60;1.27;;;16.80;70.90;;;;;;4736701;30;20091;-73
2021/10/16 19:04:42;;;;;;;7.95;1.63;;;16.80;71.00;;;;;;4745351;30;20086;-73
2021/10/16 19:07:08;;;;;;;9.20;1.85;;;16.70;70.90;;;;;;4754817;30;20456;-73
2021/10/16 19:09:34;;;;;;;7.50;2.05;;;16.70;71.10;;;;;;4754505;30;20044;-78
2021/10/16 19:12:00;;;;;;;9.02;1.60;;;16.70;71.10;;;;;;4753174;30;20448;-74
2021/10/16 19:14:26;;;;;;;9.10;1.83;;;16.70;71.20;;;;;;4736357;30;20049;-74
2021/10/16 19:16:52;;;;;;;7.28;1.30;;;16.70;71.40;;;;;;4736661;30;20063;-74
2021/10/16 19:19:17;;;;;;;9.73;1.50;;;16.70;71.60;;;;;;4733172;30;20374;-73
2021/10/16 19:21:44;;;;;;;9.10;1.55;;;16.70;71.50;;;;;;4735373;30;20056;-73
2021/10/16 19:24:09;;;;;;;9.30;1.80;;;16.70;71.60;;;;;;4736299;30;20064;-75
2021/10/16 19:26:35;;;;;;;6.45;1.17;;;16.70;71.70;;;;;;4735649;30;20045;-75
2021/10/16 19:29:02;;;;;;;9.32;1.83;;;16.70;71.80;;;;;;4736975;30;20144;-74
2021/10/16 19:31:28;;;;;;;17.88;2.42;;;16.70;71.80;;;;;;4735267;30;20540;-74
2021/10/16 19:33:54;;;;;;;6.50;1.75;;;16.70;71.80;;;;;;4736331;30;20060;-73
2021/10/16 19:36:20;;;;;;;6.18;1.33;;;16.70;71.70;;;;;;4736288;30;20136;-74
2021/10/16 19:38:46;;;;;;;6.22;1.23;;;16.70;71.70;;;;;;4726573;30;20166;-73
2021/10/16 19:41:13;;;;;;;8.10;1.75;;;16.70;71.70;;;;;;4732797;30;20510;-73
2021/10/16 19:43:39;;;;;;;5.00;1.58;;;16.80;71.80;;;;;;4736118;30;20060;-74
2021/10/16 19:46:06;;;;;;;6.10;1.30;;;16.70;71.60;;;;;;4735374;30;20128;-74
2021/10/16 19:48:32;;;;;;;5.25;1.42;;;16.80;71.60;;;;;;4736321;30;20056;-73
